Time;durP1;ratioP1;P1;durP2;ratioP2;P2;SDS_P1;SDS_P2;PMS_P1;PMS_P2;Temp;Humidity;BMP_temperature;BMP_pressure;BME280_temperature;BME280_humidity;BME280_pressure;Samples;Min_cycle;Max_cycle;Signal;HPM_P1;HPM_P2
2023/04/23 00:00:53;;;;;;;29.67;22.80;;;8.80;99.90;;;;;;5056375;28;20283;-81
2023/04/23 00:03:21;;;;;;;29.10;21.43;;;8.80;99.90;;;;;;5056025;28;20774;-81
2023/04/23 00:05:49;;;;;;;26.50;20.77;;;8.80;99.90;;;;;;5073521;28;20731;-81
2023/04/23 00:08:17;;;;;;;29.13;20.53;;;8.70;99.90;;;;;;5056204;28;20283;-80
2023/04/23 00:10:43;;;;;;;30.67;22.73;;;8.80;99.90;;;;;;5073272;28;20275;-81
2023/04/23 00:13:09;;;;;;;29.57;22.33;;;8.80;99.90;;;;;;5072524;28;20295;-81
2023/04/23 00:15:36;;;;;;;28.73;22.13;;;8.70;99.90;;;;;;5072634;28;20506;-81
2023/04/23 00:18:01;;;;;;;31.50;22.07;;;8.70;99.90;;;;;;5072660;28;20429;-81
2023/04/23 00:20:27;;;;;;;33.63;23.23;;;8.80;99.90;;;;;;5072321;28;20382;-81
2023/04/23 00:22:53;;;;;;;33.77;23.80;;;8.80;99.90;;;;;;5072212;28;20052;-81
2023/04/23 00:25:19;;;;;;;35.97;25.53;;;8.70;99.90;;;;;;5072327;28;20047;-81
2023/04/23 00:27:44;;;;;;;34.77;24.70;;;8.80;99.90;;;;;;5089309;28;20043;-81
2023/04/23 00:30:10;;;;;;;32.20;23.73;;;8.80;99.90;;;;;;5072442;28;20044;-81
2023/04/23 00:32:36;;;;;;;36.37;24.47;;;8.80;99.90;;;;;;5055178;28;20476;-81
2023/04/23 00:35:02;;;;;;;34.03;24.70;;;8.80;99.90;;;;;;5072388;28;20535;-81
2023/04/23 00:37:28;;;;;;;35.37;23.83;;;8.80;99.90;;;;;;5072178;28;20484;-83
2023/04/23 00:39:54;;;;;;;31.27;21.83;;;8.80;99.90;;;;;;5055296;28;20287;-81
2023/04/23 00:42:20;;;;;;;35.00;25.43;;;8.80;99.90;;;;;;5071912;28;20079;-81
2023/04/23 00:44:46;;;;;;;31.93;24.13;;;8.80;99.90;;;;;;5072012;28;20400;-82
2023/04/23 00:47:12;;;;;;;33.90;24.13;;;8.80;99.90;;;;;;5072230;28;20282;-81
2023/04/23 00:49:38;;;;;;;32.57;23.70;;;8.80;99.90;;;;;;5071604;28;20098;-81
2023/04/23 00:52:04;;;;;;;33.97;24.57;;;8.70;99.90;;;;;;5072887;28;20759;-81
2023/04/23 00:54:30;;;;;;;34.23;24.30;;;8.70;99.90;;;;;;5072731;28;20052;-84
2023/04/23 00:56:56;;;;;;;36.50;25.17;;;8.80;99.90;;;;;;5073058;28;20283;-81
2023/04/23 00:59:27;;;;;;;34.93;24.53;;;8.70;99.90;;;;;;5072119;28;20064;-81
2023/04/23 01:01:53;;;;;;;37.67;25.03;;;8.70;99.90;;;;;;5072847;28;20275;-81
2023/04/23 01:04:21;;;;;;;32.53;23.20;;;8.70;99.90;;;;;;5072201;28;20287;-81
2023/04/23 01:06:47;;;;;;;33.63;24.30;;;8.70;99.90;;;;;;5071667;28;20286;-82
2023/04/23 01:09:14;;;;;;;32.67;23.07;;;8.70;99.90;;;;;;5071785;28;20341;-82
2023/04/23 01:11:42;;;;;;;33.30;24.00;;;8.60;99.90;;;;;;5072460;28;20808;-81
2023/04/23 01:14:08;;;;;;;35.80;24.53;;;8.60;99.90;;;;;;5071918;28;20754;-81
2023/04/23 01:16:37;;;;;;;34.57;25.73;;;8.60;99.90;;;;;;5072604;28;20324;-82
2023/04/23 01:19:05;;;;;;;32.83;22.43;;;8.50;99.90;;;;;;5071720;28;20780;-82
2023/04/23 01:21:33;;;;;;;39.87;25.67;;;8.50;99.90;;;;;;5072685;28;20608;-82
2023/04/23 01:23:59;;;;;;;34.40;24.07;;;8.50;99.90;;;;;;5071712;28;20310;-82
2023/04/23 01:26:24;;;;;;;42.17;27.13;;;8.40;99.90;;;;;;5055218;28;20283;-81
2023/04/23 01:28:51;;;;;;;36.63;25.43;;;8.40;99.90;;;;;;5071566;28;20279;-82
2023/04/23 01:31:17;;;;;;;39.33;26.97;;;8.40;99.90;;;;;;5054907;28;20128;-81
2023/04/23 01:33:44;;;;;;;39.93;28.17;;;8.40;99.90;;;;;;5071365;28;20278;-82
2023/04/23 01:36:10;;;;;;;38.60;26.93;;;8.40;99.90;;;;;;5071460;28;20282;-81
2023/04/23 01:38:37;;;;;;;41.67;27.83;;;8.30;99.90;;;;;;5071285;28;20286;-82
2023/04/23 01:41:04;;;;;;;36.57;27.13;;;8.30;99.90;;;;;;5071384;28;20813;-81
2023/04/23 01:43:30;;;;;;;42.00;27.93;;;8.30;99.90;;;;;;5071515;28;20283;-82
2023/04/23 01:45:57;;;;;;;44.53;28.37;;;8.20;99.90;;;;;;5071342;28;20294;-81
2023/04/23 01:48:24;;;;;;;43.63;28.70;;;8.20;99.90;;;;;;5071436;28;20638;-81
2023/04/23 01:50:51;;;;;;;44.27;29.03;;;8.20;99.90;;;;;;5070970;28;20658;-82
2023/04/23 01:53:17;;;;;;;44.20;29.67;;;8.20;99.90;;;;;;5073189;28;20711;-81
2023/04/23 01:55:46;;;;;;;48.67;30.03;;;8.20;99.90;;;;;;5058505;28;20282;-81
2023/04/23 01:58:12;;;;;;;50.33;31.97;;;8.20;99.90;;;;;;5058665;28;20283;-81
2023/04/23 02:00:37;;;;;;;51.47;31.57;;;8.20;99.90;;;;;;5075115;28;20294;-85
2023/04/23 02:03:03;;;;;;;63.20;34.77;;;8.20;99.90;;;;;;5075133;28;20045;-82
2023/04/23 02:05:35;;;;;;;68.47;37.90;;;8.20;99.90;;;;;;5076032;28;20048;-82
2023/04/23 02:08:02;;;;;;;64.23;36.13;;;8.30;99.90;;;;;;5075071;28;20102;-81
2023/04/23 02:10:29;;;;;;;60.27;37.50;;;8.30;99.90;;;;;;5075223;28;20286;-81
2023/04/23 02:12:56;;;;;;;82.03;40.23;;;8.30;99.90;;;;;;5057562;28;20314;-81
2023/04/23 02:15:22;;;;;;;67.53;40.53;;;8.30;99.90;;;;;;5058243;28;20283;-82
2023/04/23 02:17:50;;;;;;;98.43;39.33;;;8.30;99.90;;;;;;5075468;28;20770;-81
2023/04/23 02:20:17;;;;;;;97.53;42.00;;;8.30;99.90;;;;;;5059028;28;20048;-81
2023/04/23 02:22:44;;;;;;;85.13;43.40;;;8.30;99.90;;;;;;5074796;28;20281;-82
2023/04/23 02:25:10;;;;;;;83.13;44.73;;;8.30;99.90;;;;;;5074739;28;20298;-81
2023/04/23 02:27:36;;;;;;;73.07;45.73;;;8.30;99.90;;;;;;5074786;28;20345;-81
2023/04/23 02:30:03;;;;;;;88.97;49.10;;;8.30;99.90;;;;;;5074246;28;20044;-81
2023/04/23 02:32:29;;;;;;;88.73;48.70;;;8.30;99.90;;;;;;5057654;28;20158;-81
2023/04/23 02:34:56;;;;;;;76.87;46.27;;;8.30;99.90;;;;;;5074301;28;20603;-81
2023/04/23 02:37:22;;;;;;;78.53;46.73;;;8.40;99.90;;;;;;5074575;28;20295;-81
2023/04/23 02:39:47;;;;;;;86.90;50.60;;;8.40;99.90;;;;;;5074252;28;20294;-82
2023/04/23 02:42:13;;;;;;;81.33;48.20;;;8.40;99.90;;;;;;5057926;28;20083;-82
2023/04/23 02:44:39;;;;;;;86.03;48.97;;;8.40;99.90;;;;;;5074144;28;20049;-81
2023/04/23 02:47:04;;;;;;;92.37;52.93;;;8.40;99.90;;;;;;5074126;28;20123;-82
2023/04/23 02:49:30;;;;;;;86.83;53.67;;;8.40;99.90;;;;;;5074401;28;20052;-82
2023/04/23 02:51:56;;;;;;;91.87;51.77;;;8.50;99.90;;;;;;5073966;28;20048;-81
2023/04/23 02:54:22;;;;;;;83.53;49.47;;;8.50;99.90;;;;;;5074245;28;20053;-81
2023/04/23 02:56:48;;;;;;;91.47;52.37;;;8.40;99.90;;;;;;5040747;28;20381;-82
2023/04/23 02:59:14;;;;;;;88.67;52.80;;;8.50;99.90;;;;;;5073836;28;20365;-81
2023/04/23 03:01:40;;;;;;;82.77;50.87;;;8.50;99.90;;;;;;5057259;28;20059;-81
2023/04/23 03:04:06;;;;;;;86.33;51.07;;;8.50;99.90;;;;;;5073565;28;20053;-81
2023/04/23 03:06:33;;;;;;;92.07;53.20;;;8.50;99.90;;;;;;5073782;28;20287;-81
2023/04/23 03:08:59;;;;;;;89.93;52.93;;;8.60;99.90;;;;;;5073815;28;20290;-81
2023/04/23 03:11:25;;;;;;;84.73;53.30;;;8.60;99.90;;;;;;5073823;28;20299;-81
2023/04/23 03:13:51;;;;;;;87.20;53.83;;;8.60;99.90;;;;;;5074707;28;20298;-82
2023/04/23 03:16:16;;;;;;;97.17;56.40;;;8.50;99.90;;;;;;5056974;28;20049;-81
2023/04/23 03:18:42;;;;;;;98.73;55.53;;;8.50;99.90;;;;;;5073864;28;20044;-81
2023/04/23 03:21:08;;;;;;;92.87;53.40;;;8.50;99.90;;;;;;5056925;28;20048;-81
2023/04/23 03:23:33;;;;;;;107.20;58.50;;;8.50;99.90;;;;;;5056874;28;20640;-81
2023/04/23 03:25:59;;;;;;;102.53;56.53;;;8.50;99.90;;;;;;5074293;28;20051;-81
2023/04/23 03:28:25;;;;;;;104.83;57.63;;;8.50;99.90;;;;;;5040327;28;20054;-81
2023/04/23 03:30:51;;;;;;;95.03;57.53;;;8.50;99.90;;;;;;5073067;28;20040;-81
2023/04/23 03:33:16;;;;;;;103.77;58.17;;;8.50;99.90;;;;;;5024202;28;20048;-81
2023/04/23 03:35:42;;;;;;;93.67;54.70;;;8.50;99.90;;;;;;5073553;28;20051;-80
2023/04/23 03:38:08;;;;;;;115.37;59.70;;;8.50;99.90;;;;;;5073308;28;20149;-81
2023/04/23 03:40:34;;;;;;;111.37;58.70;;;8.50;99.90;;;;;;5056772;28;20071;-81
2023/04/23 03:43:00;;;;;;;113.63;59.80;;;8.50;99.90;;;;;;5056414;28;20052;-81
2023/04/23 03:45:26;;;;;;;109.07;57.73;;;8.50;99.90;;;;;;5073136;28;20291;-81
2023/04/23 03:47:51;;;;;;;110.43;59.23;;;8.50;99.90;;;;;;5072921;28;20125;-81
2023/04/23 03:50:17;;;;;;;120.93;60.93;;;8.50;99.90;;;;;;5056685;28;20088;-81
2023/04/23 03:52:43;;;;;;;121.50;59.97;;;8.50;99.90;;;;;;5056187;28;20135;-81
2023/04/23 03:55:09;;;;;;;112.00;59.10;;;8.40;99.90;;;;;;5056129;28;20044;-81
2023/04/23 03:57:35;;;;;;;105.67;61.00;;;8.40;99.90;;;;;;5072949;28;20105;-81
2023/04/23 04:00:02;;;;;;;119.27;63.90;;;8.40;99.90;;;;;;5072542;28;20057;-81
2023/04/23 04:02:28;;;;;;;115.40;61.50;;;8.40;99.90;;;;;;5074211;28;20300;-81
2023/04/23 04:04:55;;;;;;;112.87;60.30;;;8.30;99.90;;;;;;5072542;28;20282;-81
2023/04/23 04:07:21;;;;;;;119.07;61.90;;;8.30;99.90;;;;;;5040093;28;20080;-81
2023/04/23 04:09:48;;;;;;;108.87;58.53;;;8.30;99.90;;;;;;5056241;28;20813;-81
2023/04/23 04:12:15;;;;;;;113.57;59.20;;;8.30;99.90;;;;;;5073239;28;20514;-81
2023/04/23 04:14:41;;;;;;;114.83;57.63;;;8.30;99.90;;;;;;5072184;28;20860;-81
2023/04/23 04:17:07;;;;;;;120.23;59.60;;;8.30;99.90;;;;;;5071842;28;20316;-81
2023/04/23 04:19:33;;;;;;;110.00;59.40;;;8.30;99.90;;;;;;5072565;28;20797;-81
2023/04/23 04:22:01;;;;;;;115.43;58.30;;;8.30;99.90;;;;;;5072339;28;20287;-81
2023/04/23 04:24:27;;;;;;;116.93;60.17;;;8.30;99.90;;;;;;5072409;28;20044;-81
2023/04/23 04:26:53;;;;;;;114.03;60.00;;;8.30;99.90;;;;;;5072379;28;20297;-80
2023/04/23 04:29:20;;;;;;;104.97;57.17;;;8.30;99.90;;;;;;5072250;28;20291;-81
2023/04/23 04:31:47;;;;;;;116.47;58.80;;;8.30;99.90;;;;;;5072142;28;20391;-80
2023/04/23 04:34:13;;;;;;;122.13;59.77;;;8.30;99.90;;;;;;5072173;28;20293;-81
2023/04/23 04:36:41;;;;;;;105.97;57.17;;;8.30;99.90;;;;;;5073305;28;20283;-81
2023/04/23 04:39:07;;;;;;;106.77;57.70;;;8.30;99.90;;;;;;5072056;28;20291;-81
2023/04/23 04:41:35;;;;;;;110.63;57.70;;;8.30;99.90;;;;;;5072055;28;20341;-81
2023/04/23 04:44:00;;;;;;;100.93;54.93;;;8.30;99.90;;;;;;5072840;28;20274;-81
2023/04/23 04:46:27;;;;;;;108.30;57.20;;;8.30;99.90;;;;;;5072011;28;20400;-80
2023/04/23 04:48:54;;;;;;;109.53;57.17;;;8.30;99.90;;;;;;5072219;28;20177;-80
2023/04/23 04:51:20;;;;;;;99.07;55.37;;;8.30;99.90;;;;;;5071823;28;20299;-81
2023/04/23 04:53:46;;;;;;;109.53;59.40;;;8.40;99.90;;;;;;5055414;28;20320;-81
2023/04/23 04:56:11;;;;;;;110.40;58.83;;;8.40;99.90;;;;;;5088405;28;20305;-81
2023/04/23 04:58:37;;;;;;;99.50;56.97;;;8.40;99.90;;;;;;5073282;28;20047;-81
2023/04/23 05:01:04;;;;;;;98.57;56.37;;;8.40;99.90;;;;;;5071868;28;20052;-81
2023/04/23 05:03:30;;;;;;;97.57;53.90;;;8.40;99.90;;;;;;5072349;28;20052;-81
2023/04/23 05:05:57;;;;;;;104.77;56.37;;;8.40;99.90;;;;;;5055369;28;20297;-81
2023/04/23 05:08:24;;;;;;;103.87;56.03;;;8.40;99.90;;;;;;5071928;28;20798;-81
2023/04/23 05:10:50;;;;;;;101.30;55.27;;;8.40;99.90;;;;;;5071730;28;20283;-81
2023/04/23 05:13:18;;;;;;;100.67;55.60;;;8.40;99.90;;;;;;5071290;28;20638;-81
2023/04/23 05:15:47;;;;;;;94.67;53.13;;;8.40;99.90;;;;;;5071949;28;20635;-81
2023/04/23 05:18:13;;;;;;;90.90;52.30;;;8.40;99.90;;;;;;5071700;28;20311;-81
2023/04/23 05:20:39;;;;;;;87.50;50.33;;;8.40;99.90;;;;;;5072786;28;20333;-81
2023/04/23 05:23:05;;;;;;;88.37;50.27;;;8.50;99.90;;;;;;5071630;28;20087;-81
2023/04/23 05:25:33;;;;;;;85.83;49.10;;;8.50;99.90;;;;;;5071593;28;20315;-81
2023/04/23 05:27:59;;;;;;;82.73;49.90;;;8.50;99.90;;;;;;5073590;28;20131;-81
2023/04/23 05:30:24;;;;;;;84.47;50.23;;;8.60;99.90;;;;;;5075505;28;20362;-81
2023/04/23 05:32:50;;;;;;;81.90;48.40;;;8.60;99.90;;;;;;5075506;28;20093;-81
2023/04/23 05:35:16;;;;;;;78.30;46.77;;;8.60;99.90;;;;;;5075558;28;20048;-81
2023/04/23 05:37:41;;;;;;;81.40;47.27;;;8.60;99.90;;;;;;5075809;28;20049;-81
2023/04/23 05:40:08;;;;;;;78.93;48.83;;;8.70;99.90;;;;;;5058589;28;20404;-82
2023/04/23 05:42:35;;;;;;;75.07;46.20;;;8.70;99.90;;;;;;5059036;28;20373;-81
2023/04/23 05:45:01;;;;;;;75.30;47.00;;;8.80;99.90;;;;;;5075774;28;20286;-81
2023/04/23 05:47:28;;;;;;;70.70;44.60;;;8.80;99.90;;;;;;5076577;28;20310;-81
2023/04/23 05:49:56;;;;;;;73.20;45.00;;;8.90;99.90;;;;;;5058948;28;20286;-81
2023/04/23 05:52:22;;;;;;;70.23;44.97;;;8.90;99.90;;;;;;5074909;28;20303;-81
2023/04/23 05:54:48;;;;;;;67.77;42.73;;;9.00;99.90;;;;;;5076233;28;20286;-81
2023/04/23 05:57:14;;;;;;;61.93;41.50;;;9.10;99.90;;;;;;5075215;28;20620;-81
2023/04/23 05:59:40;;;;;;;63.83;41.53;;;9.20;99.90;;;;;;5058694;28;20076;-81
2023/04/23 06:02:07;;;;;;;58.10;39.50;;;9.30;99.90;;;;;;5075076;28;20056;-81
2023/04/23 06:04:32;;;;;;;57.53;41.07;;;9.30;99.90;;;;;;5074905;28;20053;-81
2023/04/23 06:06:58;;;;;;;56.33;38.77;;;9.30;99.90;;;;;;5074776;28;20274;-81
2023/04/23 06:09:24;;;;;;;56.77;40.90;;;9.40;99.90;;;;;;5074813;28;20046;-81
2023/04/23 06:11:51;;;;;;;59.90;39.37;;;9.40;99.90;;;;;;5075820;28;20134;-81
2023/04/23 06:14:17;;;;;;;56.57;39.73;;;9.50;99.90;;;;;;5058224;28;20106;-81
2023/04/23 06:16:43;;;;;;;54.70;39.37;;;9.60;99.90;;;;;;5091865;28;20287;-81
2023/04/23 06:19:08;;;;;;;55.57;40.97;;;9.80;99.90;;;;;;5074541;28;20063;-81
2023/04/23 06:21:34;;;;;;;55.53;40.83;;;10.50;99.90;;;;;;5075788;28;20048;-81
2023/04/23 06:24:00;;;;;;;47.60;37.83;;;11.10;99.90;;;;;;5057999;28;20048;-81
2023/04/23 06:26:26;;;;;;;48.73;38.00;;;11.70;99.90;;;;;;5074646;28;20044;-81
2023/04/23 06:28:51;;;;;;;49.53;37.67;;;12.20;99.90;;;;;;5075699;28;20515;-81
2023/04/23 06:31:18;;;;;;;51.07;39.27;;;12.50;99.90;;;;;;5091271;28;20048;-81
2023/04/23 06:33:43;;;;;;;47.97;37.53;;;12.80;99.90;;;;;;5074555;28;20044;-82
2023/04/23 06:36:09;;;;;;;44.40;36.17;;;13.40;99.90;;;;;;5074268;28;20826;-83
2023/04/23 06:38:36;;;;;;;43.87;35.83;;;13.90;99.90;;;;;;5074104;28;20071;-81
2023/04/23 06:41:03;;;;;;;45.97;36.80;;;14.00;99.90;;;;;;5057227;28;20761;-81
2023/04/23 06:43:29;;;;;;;44.23;33.30;;;14.20;99.90;;;;;;5074363;28;20286;-82
2023/04/23 06:45:55;;;;;;;42.30;35.03;;;14.00;99.90;;;;;;5074433;28;20298;-81
2023/04/23 06:48:21;;;;;;;42.50;34.73;;;14.00;99.90;;;;;;5073926;28;20286;-82
2023/04/23 06:50:47;;;;;;;46.73;36.27;;;13.90;99.90;;;;;;5075194;28;20279;-82
2023/04/23 06:53:14;;;;;;;43.17;36.03;;;14.00;99.90;;;;;;5073567;28;20426;-82
2023/04/23 06:55:39;;;;;;;40.57;34.33;;;14.10;99.90;;;;;;5057706;28;20344;-82
2023/04/23 06:58:08;;;;;;;41.37;34.10;;;14.50;99.90;;;;;;5074169;28;20279;-82
2023/04/23 07:00:34;;;;;;;41.40;33.03;;;15.10;99.90;;;;;;5041212;28;20040;-82
2023/04/23 07:03:00;;;;;;;41.30;34.40;;;15.60;99.90;;;;;;5074373;28;20324;-82
2023/04/23 07:05:26;;;;;;;37.40;32.80;;;16.00;99.90;;;;;;5073641;28;20377;-82
2023/04/23 07:07:51;;;;;;;39.37;33.13;;;16.30;99.90;;;;;;5057241;28;20071;-82
2023/04/23 07:10:17;;;;;;;37.50;32.23;;;16.70;99.90;;;;;;5074894;28;20048;-83
2023/04/23 07:12:43;;;;;;;40.17;32.00;;;17.40;99.90;;;;;;5073416;28;20052;-82
2023/04/23 07:15:10;;;;;;;39.50;32.93;;;17.40;99.90;;;;;;5090497;28;20053;-82
2023/04/23 07:17:36;;;;;;;36.70;31.57;;;17.00;99.90;;;;;;5073606;28;20088;-82
2023/04/23 07:20:05;;;;;;;37.23;31.67;;;16.50;99.90;;;;;;5057060;28;20087;-83
2023/04/23 07:22:31;;;;;;;39.50;32.87;;;16.30;99.90;;;;;;5056919;28;20052;-82
2023/04/23 07:24:58;;;;;;;36.03;31.37;;;16.30;99.90;;;;;;5073761;28;20045;-82
2023/04/23 07:27:24;;;;;;;38.40;31.90;;;16.70;99.90;;;;;;5073531;28;20053;-82
2023/04/23 07:29:50;;;;;;;34.70;30.33;;;17.50;99.90;;;;;;5073695;28;20463;-82
2023/04/23 07:32:15;;;;;;;34.37;28.90;;;18.50;99.90;;;;;;5056825;28;20124;-84
2023/04/23 07:34:41;;;;;;;32.33;28.63;;;19.40;99.90;;;;;;5074393;28;20049;-83
2023/04/23 07:37:07;;;;;;;32.63;29.13;;;20.00;99.90;;;;;;5073285;28;20127;-82
2023/04/23 07:39:33;;;;;;;32.03;27.07;;;20.40;99.90;;;;;;5072820;28;20149;-83
2023/04/23 07:42:00;;;;;;;28.73;25.73;;;21.00;99.90;;;;;;5073238;28;20162;-82
2023/04/23 07:44:26;;;;;;;28.90;25.80;;;21.60;99.90;;;;;;5056374;28;20051;-83
2023/04/23 07:46:52;;;;;;;30.00;26.70;;;21.90;99.90;;;;;;5056798;28;20045;-83
2023/04/23 07:49:18;;;;;;;27.97;24.97;;;22.30;99.90;;;;;;5072877;28;20044;-86
2023/04/23 07:51:43;;;;;;;28.13;25.13;;;22.60;99.90;;;;;;5055233;28;20044;-83
2023/04/23 07:54:09;;;;;;;26.20;23.50;;;22.90;99.90;;;;;;5056752;28;20134;-83
2023/04/23 07:56:35;;;;;;;27.50;23.43;;;23.00;99.90;;;;;;5056330;28;20044;-83
2023/04/23 07:59:01;;;;;;;27.47;24.57;;;22.70;99.90;;;;;;5073025;28;20049;-83
2023/04/23 08:01:27;;;;;;;26.00;23.30;;;22.20;99.90;;;;;;5072879;28;20063;-83
2023/04/23 08:03:54;;;;;;;25.30;22.60;;;21.60;99.90;;;;;;5072804;28;20060;-83
2023/04/23 08:06:22;;;;;;;24.57;21.93;;;21.00;99.70;;;;;;5072881;28;20062;-84
2023/04/23 08:08:49;;;;;;;24.43;21.77;;;20.30;99.90;;;;;;5072914;28;20041;-83
2023/04/23 08:11:15;;;;;;;24.80;22.17;;;19.70;99.90;;;;;;5072750;28;20450;-83
2023/04/23 08:13:41;;;;;;;25.77;22.23;;;19.40;99.90;;;;;;5072063;28;20061;-83
2023/04/23 08:16:07;;;;;;;22.70;20.30;;;19.10;99.90;;;;;;5072716;28;20055;-83
2023/04/23 08:18:34;;;;;;;22.90;20.50;;;18.80;99.90;;;;;;5072315;28;20052;-84
2023/04/23 08:21:00;;;;;;;24.20;20.53;;;18.60;99.90;;;;;;5056288;28;20545;-83
2023/04/23 08:23:26;;;;;;;24.60;21.97;;;18.50;99.90;;;;;;5072678;28;20048;-84
2023/04/23 08:25:51;;;;;;;25.63;21.13;;;18.30;99.90;;;;;;5072937;28;20519;-83
2023/04/23 08:28:18;;;;;;;24.67;20.63;;;18.10;99.90;;;;;;5055875;28;20047;-83
2023/04/23 08:30:44;;;;;;;24.67;21.20;;;18.00;99.90;;;;;;5072178;28;20551;-83
2023/04/23 08:33:10;;;;;;;23.87;20.97;;;17.80;99.90;;;;;;5055250;28;20036;-83
2023/04/23 08:35:37;;;;;;;23.90;20.30;;;17.60;99.90;;;;;;5055697;28;20056;-83
2023/04/23 08:38:02;;;;;;;22.40;19.27;;;17.50;99.90;;;;;;5072384;28;20150;-83
2023/04/23 08:40:31;;;;;;;25.13;20.17;;;17.50;99.90;;;;;;5072173;28;20120;-83
2023/04/23 08:43:18;;;;;;;22.30;19.07;;;17.40;99.90;;;;;;5072335;28;20048;-83
2023/04/23 08:45:48;;;;;;;21.97;18.33;;;17.30;99.90;;;;;;5055258;28;20092;-83
2023/04/23 08:48:14;;;;;;;21.10;18.60;;;17.20;99.90;;;;;;5072246;28;20044;-83
2023/04/23 08:50:44;;;;;;;20.20;17.33;;;17.20;99.90;;;;;;5071961;28;20123;-83
2023/04/23 08:53:10;;;;;;;19.87;16.23;;;17.20;99.90;;;;;;5071796;28;20037;-83
2023/04/23 08:55:36;;;;;;;20.73;16.80;;;17.20;99.90;;;;;;5071617;28;20122;-83
2023/04/23 08:58:05;;;;;;;21.90;17.87;;;17.10;99.90;;;;;;5071896;28;20109;-83
2023/04/23 09:00:32;;;;;;;21.27;16.10;;;17.10;99.90;;;;;;5071733;28;20496;-83
2023/04/23 09:02:57;;;;;;;20.10;14.50;;;17.10;99.90;;;;;;5055204;28;20048;-83
2023/04/23 09:05:23;;;;;;;18.73;14.60;;;17.00;99.90;;;;;;5072026;28;20098;-83
2023/04/23 09:07:49;;;;;;;18.20;14.30;;;17.10;99.90;;;;;;5071554;28;20064;-83
2023/04/23 09:10:15;;;;;;;17.63;13.70;;;17.10;99.90;;;;;;5055099;28;20056;-83
2023/04/23 09:12:42;;;;;;;15.43;12.93;;;17.00;99.90;;;;;;5038105;28;20052;-84
2023/04/23 09:15:09;;;;;;;17.77;12.10;;;16.90;99.90;;;;;;5072011;28;20049;-84
2023/04/23 09:17:42;;;;;;;15.47;11.87;;;16.90;99.90;;;;;;5071523;28;20401;-84
2023/04/23 09:20:09;;;;;;;16.17;10.17;;;16.90;99.90;;;;;;5072108;28;20136;-83
2023/04/23 09:22:53;;;;;;;13.47;9.97;;;16.90;99.90;;;;;;5054894;28;20051;-84
2023/04/23 09:25:22;;;;;;;15.47;11.20;;;17.00;99.90;;;;;;5071729;28;20059;-84
2023/04/23 09:27:50;;;;;;;14.37;10.27;;;17.10;99.90;;;;;;5072707;28;20044;-84
2023/04/23 09:30:17;;;;;;;13.37;8.93;;;17.10;99.90;;;;;;5055021;28;20476;-84
2023/04/23 09:32:44;;;;;;;12.30;9.00;;;17.10;99.90;;;;;;5071190;28;20053;-83
2023/04/23 09:35:21;;;;;;;15.30;9.57;;;16.90;99.90;;;;;;5072666;28;20063;-83
2023/04/23 09:37:51;;;;;;;13.93;8.83;;;16.90;99.90;;;;;;5071336;28;20044;-83
2023/04/23 09:40:23;;;;;;;11.93;8.50;;;16.80;99.90;;;;;;5054803;28;20048;-83
2023/04/23 09:42:53;;;;;;;14.80;8.73;;;16.80;99.90;;;;;;5071503;28;20124;-83
2023/04/23 09:45:19;;;;;;;13.13;9.40;;;16.90;99.90;;;;;;5071605;28;20057;-83
2023/04/23 09:47:50;;;;;;;12.67;8.30;;;16.80;99.90;;;;;;5071355;28;20040;-83
2023/04/23 09:50:16;;;;;;;13.53;7.70;;;16.80;99.90;;;;;;5054674;28;20056;-84
2023/04/23 09:52:41;;;;;;;11.43;7.10;;;16.90;99.90;;;;;;5054334;28;20090;-83
2023/04/23 09:55:08;;;;;;;10.43;7.50;;;16.90;99.90;;;;;;5071690;28;20048;-83
2023/04/23 09:57:39;;;;;;;12.57;7.80;;;16.90;99.90;;;;;;5072627;28;20106;-83
2023/04/23 10:00:21;;;;;;;10.07;6.47;;;16.90;99.90;;;;;;5071201;28;20380;-83
2023/04/23 10:02:51;;;;;;;12.33;7.27;;;16.90;99.90;;;;;;5070923;28;20044;-83
2023/04/23 10:05:21;;;;;;;10.03;6.03;;;16.90;99.90;;;;;;5071760;28;20053;-83
2023/04/23 10:07:50;;;;;;;9.83;5.83;;;16.90;99.90;;;;;;5072308;28;20048;-83
2023/04/23 10:10:17;;;;;;;11.60;5.33;;;16.90;99.90;;;;;;5071365;28;20045;-83
2023/04/23 10:12:44;;;;;;;13.20;6.43;;;16.90;99.90;;;;;;5054112;28;20068;-84
2023/04/23 10:15:11;;;;;;;9.63;5.50;;;16.90;99.90;;;;;;5074059;28;20395;-83
2023/04/23 10:17:38;;;;;;;11.83;5.57;;;16.90;99.90;;;;;;5074876;28;20087;-84
2023/04/23 10:20:06;;;;;;;12.23;6.37;;;17.00;99.90;;;;;;5075991;28;20077;-83
2023/04/23 10:22:33;;;;;;;10.27;5.93;;;17.00;99.90;;;;;;5074781;28;20055;-83
2023/04/23 10:25:02;;;;;;;13.03;6.73;;;16.90;99.90;;;;;;5074690;28;20064;-83
2023/04/23 10:27:30;;;;;;;12.03;6.50;;;16.90;99.90;;;;;;5075749;28;20507;-84
2023/04/23 10:30:00;;;;;;;12.03;6.37;;;16.80;99.90;;;;;;5074524;28;20052;-83
2023/04/23 10:32:26;;;;;;;11.37;6.87;;;16.70;99.90;;;;;;5075714;28;20093;-83
2023/04/23 10:34:53;;;;;;;10.90;6.80;;;16.70;99.90;;;;;;5075609;28;20489;-83
2023/04/23 10:37:19;;;;;;;12.60;5.97;;;16.70;99.90;;;;;;5074651;28;20435;-82
2023/04/23 10:39:52;;;;;;;10.17;5.97;;;16.70;99.90;;;;;;5074140;28;20070;-83
2023/04/23 10:42:19;;;;;;;9.17;5.93;;;16.70;99.90;;;;;;5091349;28;20404;-84
2023/04/23 10:44:45;;;;;;;10.37;6.33;;;16.70;99.90;;;;;;5074179;28;20048;-83
2023/04/23 10:47:13;;;;;;;12.53;6.83;;;16.70;99.90;;;;;;5074264;28;20132;-83
2023/04/23 10:49:39;;;;;;;10.53;6.13;;;16.70;99.90;;;;;;5057742;28;20468;-83
2023/04/23 10:52:16;;;;;;;11.47;6.47;;;16.70;99.90;;;;;;5073921;28;20068;-83
2023/04/23 10:55:02;;;;;;;11.57;6.70;;;16.80;99.90;;;;;;5074086;28;20053;-83
2023/04/23 10:57:28;;;;;;;11.67;6.27;;;16.90;99.90;;;;;;5073788;28;20055;-83
2023/04/23 10:59:55;;;;;;;14.83;5.77;;;16.90;99.90;;;;;;5075142;28;20056;-83
2023/04/23 11:02:25;;;;;;;8.63;5.90;;;17.00;99.90;;;;;;5057554;28;20055;-83
2023/04/23 11:04:58;;;;;;;13.80;6.37;;;17.00;99.90;;;;;;5073490;28;20050;-83
2023/04/23 11:07:31;;;;;;;9.40;4.80;;;17.00;99.90;;;;;;5075036;28;20082;-83
2023/04/23 11:10:13;;;;;;;8.40;4.90;;;17.00;99.90;;;;;;5073653;28;20048;-83
2023/04/23 11:12:40;;;;;;;6.43;3.33;;;17.10;99.90;;;;;;5075000;28;20102;-83
2023/04/23 11:15:11;;;;;;;11.87;3.80;;;17.20;99.90;;;;;;5057148;28;20053;-84
2023/04/23 11:17:37;;;;;;;9.47;3.40;;;17.10;99.90;;;;;;5074728;28;20045;-83
2023/04/23 11:20:02;;;;;;;6.67;3.37;;;17.10;99.90;;;;;;5056696;28;20049;-83
2023/04/23 11:22:39;;;;;;;8.67;3.50;;;17.00;99.90;;;;;;5073866;28;20053;-83
2023/04/23 11:25:10;;;;;;;9.70;3.33;;;17.00;99.90;;;;;;5074418;28;20078;-83
2023/04/23 11:27:39;;;;;;;7.87;3.80;;;17.00;99.90;;;;;;5057064;28;20139;-83
2023/04/23 11:30:12;;;;;;;9.30;3.57;;;17.10;99.90;;;;;;5074267;28;20101;-83
2023/04/23 11:32:40;;;;;;;11.03;3.33;;;17.20;99.90;;;;;;5073231;28;20114;-83
2023/04/23 11:35:08;;;;;;;8.63;3.17;;;17.10;99.90;;;;;;5056674;28;20132;-83
2023/04/23 11:37:41;;;;;;;7.13;2.60;;;17.20;99.90;;;;;;5073228;28;20056;-82
2023/04/23 11:40:13;;;;;;;10.03;3.00;;;17.20;99.90;;;;;;5074104;28;20059;-83
2023/04/23 11:42:53;;;;;;;6.60;3.03;;;17.30;99.90;;;;;;5073414;28;20488;-83
2023/04/23 11:45:27;;;;;;;7.00;2.67;;;17.30;99.90;;;;;;5073388;28;20052;-83
2023/04/23 11:47:55;;;;;;;7.73;2.60;;;17.30;99.90;;;;;;5057161;28;20052;-83
2023/04/23 11:50:29;;;;;;;7.97;2.57;;;17.40;99.90;;;;;;5073234;28;20052;-83
2023/04/23 11:52:55;;;;;;;9.65;2.88;;;17.50;99.90;;;;;;5074006;28;20041;-84
2023/04/23 11:55:22;;;;;;;8.77;2.50;;;17.60;99.90;;;;;;5072767;28;20476;-84
2023/04/23 11:57:49;;;;;;;7.03;3.43;;;17.60;99.90;;;;;;5074157;28;20057;-83
2023/04/23 12:00:20;;;;;;;10.33;2.60;;;17.60;99.90;;;;;;5073382;28;20052;-83
2023/04/23 12:03:00;;;;;;;5.87;2.50;;;17.60;99.90;;;;;;5072569;28;20037;-83
2023/04/23 12:05:35;;;;;;;7.63;2.67;;;17.60;99.90;;;;;;5072881;28;20055;-83
2023/04/23 12:08:13;;;;;;;9.07;2.87;;;17.70;99.90;;;;;;5055810;28;20057;-83
2023/04/23 12:10:50;;;;;;;8.30;1.93;;;17.70;99.90;;;;;;5057158;28;20052;-83
2023/04/23 12:13:38;;;;;;;5.60;2.00;;;17.70;99.90;;;;;;5073471;28;20091;-83
2023/04/23 12:16:04;;;;;;;7.17;2.17;;;17.60;99.90;;;;;;5073276;28;20057;-84
2023/04/23 12:18:39;;;;;;;9.83;2.30;;;17.70;99.90;;;;;;5072489;28;20044;-84
2023/04/23 12:21:06;;;;;;;6.82;2.10;;;17.80;99.90;;;;;;5072586;28;20488;-83
2023/04/23 12:23:34;;;;;;;7.40;2.07;;;17.70;99.90;;;;;;5072565;28;20097;-84
2023/04/23 12:26:00;;;;;;;9.10;2.40;;;17.70;99.90;;;;;;5072309;28;20127;-84
2023/04/23 12:28:26;;;;;;;6.73;2.00;;;17.80;99.90;;;;;;5072280;28;20468;-83
2023/04/23 12:30:52;;;;;;;7.33;2.10;;;17.90;99.90;;;;;;5072110;28;20052;-88
2023/04/23 12:33:19;;;;;;;9.80;3.20;;;17.90;99.90;;;;;;5071902;28;20056;-83